Time;durP1;ratioP1;P1;durP2;ratioP2;P2;SDS_P1;SDS_P2;PMS_P1;PMS_P2;Temp;Humidity;BMP_temperature;BMP_pressure;BME280_temperature;BME280_humidity;BME280_pressure;Samples;Min_cycle;Max_cycle;Signal;HPM_P1;HPM_P2
2021/03/12 00:00:44;;;;;;;1.20;0.47;;;;;;;5.83;82.54;98871.13;5072244;28;20171;-74
2021/03/12 00:03:13;;;;;;;0.17;0.17;;;;;;;5.73;81.78;98863.31;5072155;28;20181;-75
2021/03/12 00:06:00;;;;;;;0.40;0.40;;;;;;;5.60;82.11;98868.56;5072140;28;20216;-75
2021/03/12 00:08:32;;;;;;;0.40;0.30;;;;;;;5.54;82.57;98864.41;5071828;28;20171;-75
2021/03/12 00:10:58;;;;;;;0.17;0.17;;;;;;;5.48;82.72;98879.22;5071924;28;20174;-75
2021/03/12 00:13:25;;;;;;;0.20;0.20;;;;;;;5.41;82.80;98878.09;5071889;28;20175;-75
2021/03/12 00:15:51;;;;;;;0.00;0.00;;;;;;;5.30;83.46;98874.88;5071896;28;20248;-75
2021/03/12 00:18:18;;;;;;;1.27;1.20;;;;;;;5.41;84.71;98869.97;5071733;28;20179;-75
2021/03/12 00:20:43;;;;;;;0.20;0.20;;;;;;;5.66;84.80;98863.81;5071723;28;20167;-74
2021/03/12 00:23:09;;;;;;;0.07;0.07;;;;;;;5.84;83.48;98870.81;5071018;28;20228;-75
2021/03/12 00:25:41;;;;;;;0.37;0.37;;;;;;;5.93;83.55;98881.66;5034012;28;20540;-75
2021/03/12 00:28:08;;;;;;;0.40;0.40;;;;;;;5.99;82.93;98879.63;5051398;28;20266;-74
2021/03/12 00:30:35;;;;;;;0.57;0.30;;;;;;;6.05;82.32;98873.69;5051903;28;20203;-75
2021/03/12 00:33:00;;;;;;;0.00;0.00;;;;;;;6.06;82.43;98875.28;5051688;28;20175;-75
2021/03/12 00:35:27;;;;;;;1.77;0.83;;;;;;;6.10;82.06;98908.00;5052039;28;20187;-75
2021/03/12 00:37:52;;;;;;;0.87;0.87;;;;;;;5.99;83.09;98910.22;5051161;28;20171;-75
2021/03/12 00:40:21;;;;;;;8.03;0.37;;;;;;;5.80;81.96;98913.22;5051700;28;20244;-75
2021/03/12 00:42:46;;;;;;;0.20;0.20;;;;;;;5.68;82.44;98929.31;5033798;28;20253;-75
2021/03/12 00:45:15;;;;;;;0.43;0.20;;;;;;;5.58;82.66;98914.13;5051602;28;20255;-74
2021/03/12 00:47:42;;;;;;;0.23;0.23;;;;;;;5.41;83.28;98908.69;5051471;28;20175;-74
2021/03/12 00:50:08;;;;;;;0.50;0.50;;;;;;;5.23;83.62;98907.03;5051614;28;20183;-74
2021/03/12 00:52:33;;;;;;;0.53;0.53;;;;;;;5.18;84.65;98926.13;5051476;28;20175;-75
2021/03/12 00:54:59;;;;;;;0.50;0.33;;;;;;;5.18;84.97;98920.69;5051579;28;20182;-75
2021/03/12 00:57:25;;;;;;;0.10;0.10;;;;;;;5.14;85.25;98917.03;5051296;28;20318;-75
2021/03/12 00:59:50;;;;;;;0.40;0.40;;;;;;;5.08;85.19;98914.47;5051517;28;20225;-75
2021/03/12 01:02:15;;;;;;;3.40;0.37;;;;;;;5.06;85.37;98919.41;5051619;28;20555;-75
2021/03/12 01:04:41;;;;;;;0.40;0.27;;;;;;;5.09;85.39;98915.28;5053466;28;20203;-75
2021/03/12 01:07:06;;;;;;;0.37;0.37;;;;;;;5.14;85.28;98917.84;5059430;28;20222;-75
2021/03/12 01:09:32;;;;;;;0.40;0.40;;;;;;;5.18;85.37;98921.50;5057054;28;20179;-75
2021/03/12 01:11:57;;;;;;;0.70;0.70;;;;;;;5.25;85.69;98916.44;5051484;28;20202;-75
2021/03/12 01:14:23;;;;;;;0.63;0.63;;;;;;;5.42;86.14;98904.84;5051139;28;20172;-75
2021/03/12 01:16:50;;;;;;;0.37;0.37;;;;;;;5.60;85.54;98905.69;5032845;28;20533;-75
2021/03/12 01:19:16;;;;;;;1.23;0.83;;;;;;;5.74;84.65;98906.34;5050873;28;20181;-75
2021/03/12 01:21:41;;;;;;;0.53;0.10;;;;;;;5.85;83.17;98907.63;5050242;28;20183;-76
2021/03/12 01:24:08;;;;;;;1.90;0.33;;;;;;;6.00;81.78;98900.19;5031821;28;20226;-75
2021/03/12 01:26:33;;;;;;;0.77;0.77;;;;;;;6.04;81.88;98909.25;5050284;28;20213;-75
2021/03/12 01:28:58;;;;;;;0.93;0.93;;;;;;;6.02;82.32;98908.78;5050436;28;20191;-75
2021/03/12 01:31:24;;;;;;;6.30;1.07;;;;;;;5.81;84.45;98914.03;5050805;28;20258;-76
2021/03/12 01:33:49;;;;;;;1.13;0.70;;;;;;;5.60;85.84;98902.97;5050431;28;20203;-75
2021/03/12 01:36:14;;;;;;;0.77;0.77;;;;;;;5.55;85.93;98900.44;5032345;28;20220;-76
2021/03/12 01:38:40;;;;;;;3.67;1.50;;;;;;;5.53;86.83;98910.78;5050406;28;20176;-75
2021/03/12 01:41:05;;;;;;;0.37;0.37;;;;;;;5.57;86.30;98912.53;5050584;28;20189;-75
2021/03/12 01:43:30;;;;;;;0.30;0.30;;;;;;;5.61;85.82;98910.78;5032648;28;20191;-75
2021/03/12 01:45:56;;;;;;;0.57;0.57;;;;;;;5.67;85.39;98927.72;5050380;28;20175;-75
2021/03/12 01:48:24;;;;;;;1.23;1.13;;;;;;;5.72;84.88;98921.34;5049959;28;20172;-75
2021/03/12 01:50:54;;;;;;;0.30;0.30;;;;;;;5.76;84.60;98920.38;5050604;28;20169;-75
2021/03/12 01:53:21;;;;;;;0.43;0.40;;;;;;;5.82;83.62;98924.53;5050338;28;20176;-75
2021/03/12 01:55:47;;;;;;;10.20;1.37;;;;;;;5.84;83.16;98929.63;5050400;28;20187;-75
2021/03/12 01:58:12;;;;;;;1.80;1.63;;;;;;;5.89;82.21;98934.91;5049854;28;20225;-75
2021/03/12 02:00:38;;;;;;;1.53;1.43;;;;;;;5.94;82.25;98937.50;5032235;28;20517;-76
2021/03/12 02:03:07;;;;;;;2.97;2.33;;;;;;;5.90;82.00;98941.94;5050249;28;20175;-75
2021/03/12 02:05:34;;;;;;;11.70;1.70;;;;;;;5.81;83.17;98936.50;5050290;28;20578;-74
2021/03/12 02:07:59;;;;;;;1.57;1.27;;;;;;;5.61;82.64;98928.94;5057189;28;20177;-75
2021/03/12 02:10:26;;;;;;;0.50;0.50;;;;;;;5.51;83.32;98934.69;5070331;28;20182;-75
2021/03/12 02:13:26;;;;;;;4.73;2.03;;;;;;;5.43;84.46;98944.38;5070204;28;20175;-75
2021/03/12 02:16:10;;;;;;;0.87;0.70;;;;;;;5.41;84.96;98953.94;5070432;28;20186;-75
2021/03/12 02:18:52;;;;;;;0.27;0.27;;;;;;;5.41;85.46;98975.59;5070259;28;20170;-75
2021/03/12 02:21:30;;;;;;;2.67;1.03;;;;;;;5.37;87.23;98967.31;5070241;28;20183;-76
2021/03/12 02:24:12;;;;;;;0.37;0.37;;;;;;;5.26;88.52;98966.78;5051268;28;20221;-75
2021/03/12 02:26:43;;;;;;;0.77;0.57;;;;;;;5.12;88.95;98992.34;5069874;28;20170;-76
2021/03/12 02:29:14;;;;;;;2.53;2.33;;;;;;;4.73;89.94;98999.28;5069917;28;20273;-75
2021/03/12 02:31:40;;;;;;;2.90;1.47;;;;;;;4.45;91.26;99004.78;5070132;28;20251;-75
2021/03/12 02:34:08;;;;;;;1.73;1.63;;;;;;;4.31;92.24;99022.16;5070257;28;20581;-75
2021/03/12 02:36:37;;;;;;;4.83;2.00;;;;;;;4.21;93.22;99011.59;5073563;28;20621;-76
2021/03/12 02:39:06;;;;;;;0.93;0.93;;;;;;;4.20;93.55;99007.31;5073672;28;20265;-75
2021/03/12 02:41:33;;;;;;;0.20;0.20;;;;;;;4.19;93.26;99003.78;5073705;28;20241;-74
2021/03/12 02:44:00;;;;;;;1.03;0.43;;;;;;;4.14;93.19;99018.22;5073456;28;20194;-75
2021/03/12 02:46:27;;;;;;;0.23;0.23;;;;;;;4.11;92.38;99032.34;5073294;28;20173;-75
2021/03/12 02:48:54;;;;;;;0.13;0.13;;;;;;;4.06;92.32;99021.66;5073619;28;20166;-75
2021/03/12 02:51:20;;;;;;;0.30;0.30;;;;;;;4.05;91.75;99024.63;5073569;28;20182;-75
2021/03/12 02:53:47;;;;;;;0.47;0.47;;;;;;;4.10;91.61;99033.44;5073782;28;20174;-75
2021/03/12 02:56:14;;;;;;;0.30;0.30;;;;;;;4.12;91.81;99036.63;5073120;28;20180;-75
2021/03/12 02:58:42;;;;;;;0.00;0.00;;;;;;;4.18;91.95;99043.53;5073360;28;20178;-74
2021/03/12 03:01:08;;;;;;;0.53;0.53;;;;;;;4.29;91.55;99048.72;5073558;28;20174;-74
2021/03/12 03:03:35;;;;;;;0.60;0.60;;;;;;;4.36;90.75;99051.81;5073113;28;20233;-75
2021/03/12 03:06:04;;;;;;;1.13;0.87;;;;;;;4.41;90.82;99051.69;5073036;28;20175;-75
2021/03/12 03:08:31;;;;;;;1.00;0.93;;;;;;;4.42;90.23;99061.41;5073086;28;20224;-75
2021/03/12 03:11:05;;;;;;;0.47;0.47;;;;;;;4.40;90.29;99066.31;5073164;28;20536;-75
2021/03/12 03:13:33;;;;;;;0.27;0.27;;;;;;;4.38;91.12;99069.31;5072946;28;20217;-75
2021/03/12 03:16:05;;;;;;;0.53;0.53;;;;;;;4.39;90.44;99064.72;5073013;28;20289;-75
2021/03/12 03:18:32;;;;;;;0.20;0.20;;;;;;;4.38;89.63;99069.31;5055115;28;20170;-75
2021/03/12 03:21:00;;;;;;;0.60;0.23;;;;;;;4.39;89.32;99064.72;5072998;28;20174;-75
2021/03/12 03:23:26;;;;;;;1.07;1.07;;;;;;;4.36;89.44;99081.56;5073001;28;20209;-74
2021/03/12 03:25:52;;;;;;;0.83;0.63;;;;;;;4.32;89.57;99080.53;5072669;28;20202;-74
2021/03/12 03:28:18;;;;;;;1.03;0.43;;;;;;;4.29;89.21;99092.75;5072541;28;20273;-75
2021/03/12 03:30:43;;;;;;;1.50;1.23;;;;;;;4.31;89.67;99087.06;5054845;28;20693;-75
2021/03/12 03:33:09;;;;;;;1.93;1.50;;;;;;;4.30;89.52;99071.94;5072790;28;20246;-74
2021/03/12 03:35:34;;;;;;;0.00;0.00;;;;;;;4.29;89.83;99084.66;5054827;28;20198;-74
2021/03/12 03:38:00;;;;;;;0.57;0.57;;;;;;;4.29;89.92;99089.25;5072187;28;20206;-74
2021/03/12 03:40:25;;;;;;;0.00;0.00;;;;;;;4.29;89.62;99095.47;5072471;28;20171;-75
2021/03/12 03:42:52;;;;;;;0.63;0.63;;;;;;;4.34;89.60;99087.25;5072336;28;20181;-75
2021/03/12 03:45:19;;;;;;;2.70;0.87;;;;;;;4.35;89.99;99094.28;5072002;28;20280;-75
2021/03/12 03:47:45;;;;;;;0.50;0.50;;;;;;;4.43;89.05;99085.44;5071982;28;20229;-75
2021/03/12 03:50:14;;;;;;;3.33;1.00;;;;;;;4.48;89.31;99106.97;5071739;28;20194;-75
2021/03/12 03:52:40;;;;;;;0.77;0.77;;;;;;;4.49;89.08;99110.47;5066830;28;20199;-75
2021/03/12 03:55:08;;;;;;;0.40;0.40;;;;;;;4.53;88.90;99110.66;5052314;28;20201;-74
2021/03/12 03:57:34;;;;;;;0.20;0.20;;;;;;;4.55;88.91;99100.31;5051823;28;20414;-76
2021/03/12 04:00:03;;;;;;;0.10;0.10;;;;;;;4.55;89.23;99111.16;5052203;28;20484;-75
2021/03/12 04:02:28;;;;;;;2.17;1.70;;;;;;;4.54;89.07;99104.94;5052210;28;20222;-75
2021/03/12 04:04:54;;;;;;;0.30;0.30;;;;;;;4.54;89.41;99118.47;5052014;28;20289;-75
2021/03/12 04:07:22;;;;;;;0.43;0.43;;;;;;;4.61;88.83;99123.44;5051779;28;20714;-75
2021/03/12 04:09:50;;;;;;;0.90;0.90;;;;;;;4.67;87.78;99128.44;5051723;28;20262;-74
2021/03/12 04:12:16;;;;;;;0.40;0.33;;;;;;;4.71;88.52;99134.84;5052056;28;20543;-75
2021/03/12 04:14:44;;;;;;;1.50;1.40;;;;;;;4.66;88.81;99134.16;5051703;28;20208;-75
2021/03/12 04:17:10;;;;;;;1.90;0.87;;;;;;;4.48;88.78;99122.38;5051518;28;20254;-75
2021/03/12 04:19:38;;;;;;;0.67;0.67;;;;;;;4.29;90.21;99127.09;5051560;28;20229;-74
2021/03/12 04:22:04;;;;;;;1.13;1.03;;;;;;;4.17;91.30;99139.22;5052097;28;20163;-74
2021/03/12 04:24:31;;;;;;;0.57;0.57;;;;;;;4.08;91.84;99146.44;5050538;28;20678;-75
2021/03/12 04:26:57;;;;;;;1.50;1.37;;;;;;;4.03;92.78;99143.81;5051306;28;20642;-74
2021/03/12 04:29:23;;;;;;;0.63;0.63;;;;;;;4.11;92.06;99166.66;5033420;28;20187;-75
2021/03/12 04:31:49;;;;;;;0.80;0.80;;;;;;;4.13;91.92;99154.44;5051568;28;20220;-75
2021/03/12 04:34:15;;;;;;;0.60;0.60;;;;;;;4.12;92.34;99171.75;5051659;28;20266;-76
2021/03/12 04:36:41;;;;;;;0.37;0.37;;;;;;;4.06;92.33;99177.59;5051175;28;20270;-76
2021/03/12 04:39:07;;;;;;;0.10;0.10;;;;;;;4.03;93.29;99176.25;5051701;28;20574;-75
2021/03/12 04:41:34;;;;;;;0.13;0.13;;;;;;;4.04;93.17;99168.94;5051434;28;20175;-74
2021/03/12 04:44:01;;;;;;;0.60;0.60;;;;;;;4.06;92.58;99178.38;5051290;28;20211;-75
2021/03/12 04:46:26;;;;;;;0.47;0.47;;;;;;;4.09;92.42;99177.78;5050946;28;20175;-74
2021/03/12 04:48:52;;;;;;;0.83;0.60;;;;;;;4.15;92.04;99170.34;5033353;28;20179;-76
2021/03/12 04:51:18;;;;;;;1.03;1.03;;;;;;;4.24;91.77;99184.00;5051202;28;20692;-76
2021/03/12 04:53:44;;;;;;;0.93;0.77;;;;;;;4.31;91.37;99190.59;5050912;28;20191;-75
2021/03/12 04:56:10;;;;;;;1.00;0.97;;;;;;;4.38;90.71;99201.00;5050589;28;20167;-75
2021/03/12 04:58:39;;;;;;;2.77;2.57;;;;;;;4.36;91.19;99190.50;5032823;28;20183;-76
2021/03/12 05:01:09;;;;;;;4.53;1.80;;;;;;;4.28;89.55;99199.28;5050979;28;20199;-74
2021/03/12 05:03:36;;;;;;;0.47;0.40;;;;;;;4.20;89.81;99180.28;5050906;28;20230;-75
2021/03/12 05:06:03;;;;;;;1.93;0.73;;;;;;;4.11;90.23;99194.50;5050700;28;20209;-75
2021/03/12 05:08:30;;;;;;;11.00;1.77;;;;;;;4.13;89.12;99210.41;5050520;28;20712;-75
2021/03/12 05:11:00;;;;;;;0.60;0.20;;;;;;;4.14;89.76;99202.00;5050704;28;20207;-75
2021/03/12 05:13:26;;;;;;;0.60;0.50;;;;;;;4.10;90.43;99222.63;5050694;28;20702;-76
2021/03/12 05:15:51;;;;;;;0.87;0.77;;;;;;;4.08;90.79;99211.31;5050644;28;20266;-75
2021/03/12 05:18:17;;;;;;;1.13;0.87;;;;;;;4.10;90.71;99224.53;5050586;28;20213;-75
2021/03/12 05:20:43;;;;;;;0.50;0.50;;;;;;;4.09;91.36;99242.63;5050599;28;20262;-75
2021/03/12 05:23:08;;;;;;;0.97;0.97;;;;;;;3.99;91.70;99237.41;5031906;28;20261;-76
2021/03/12 05:25:33;;;;;;;0.17;0.17;;;;;;;3.72;92.23;99238.13;5050626;28;20203;-75
2021/03/12 05:27:59;;;;;;;12.60;0.63;;;;;;;3.54;92.60;99239.78;5050332;28;20694;-75
2021/03/12 05:30:25;;;;;;;0.87;0.87;;;;;;;3.43;92.81;99242.94;5050501;28;20159;-75
2021/03/12 05:32:50;;;;;;;0.77;0.70;;;;;;;3.26;94.48;99243.47;5050493;28;20528;-76
2021/03/12 05:35:15;;;;;;;1.03;0.87;;;;;;;3.14;95.13;99245.78;5050554;28;20179;-74
2021/03/12 05:37:41;;;;;;;0.87;0.87;;;;;;;3.11;95.57;99260.69;5050115;28;20228;-75
2021/03/12 05:40:07;;;;;;;0.13;0.13;;;;;;;3.11;96.11;99249.88;5050405;28;20179;-74
2021/03/12 05:42:33;;;;;;;0.10;0.10;;;;;;;3.15;95.74;99259.00;5050756;28;20175;-74
2021/03/12 05:45:00;;;;;;;0.43;0.43;;;;;;;3.14;94.79;99249.28;5050344;28;20238;-76
2021/03/12 05:47:25;;;;;;;0.30;0.20;;;;;;;3.14;95.07;99254.69;5058695;28;20642;-75
2021/03/12 05:49:54;;;;;;;0.50;0.50;;;;;;;3.16;95.27;99265.19;5070162;28;20423;-75
2021/03/12 05:52:20;;;;;;;0.00;0.00;;;;;;;3.29;95.15;99267.16;5070282;28;20547;-75
2021/03/12 05:54:45;;;;;;;0.83;0.37;;;;;;;3.45;94.82;99268.53;5052191;28;20232;-75
2021/03/12 05:57:11;;;;;;;3.03;1.07;;;;;;;3.55;94.22;99276.50;5069986;28;20632;-75
2021/03/12 05:59:38;;;;;;;4.10;1.43;;;;;;;3.59;93.99;99279.41;5070264;28;20224;-74
2021/03/12 06:02:04;;;;;;;2.33;2.23;;;;;;;3.66;92.48;99271.75;5070139;28;20176;-75
2021/03/12 06:04:30;;;;;;;0.40;0.40;;;;;;;3.73;91.75;99291.06;5070044;28;20578;-76
2021/03/12 06:06:55;;;;;;;0.20;0.20;;;;;;;3.79;90.91;99291.78;5069526;28;20703;-75
2021/03/12 06:09:21;;;;;;;2.83;1.43;;;;;;;3.82;90.68;99292.00;5072874;28;20262;-75
2021/03/12 06:11:46;;;;;;;0.50;0.50;;;;;;;3.83;90.30;99309.00;5074037;28;20178;-75
2021/03/12 06:14:12;;;;;;;1.37;0.60;;;;;;;3.80;90.35;99309.59;5074041;28;20206;-76
2021/03/12 06:16:37;;;;;;;0.93;0.93;;;;;;;3.78;89.63;99318.00;5073587;28;20174;-74
2021/03/12 06:19:12;;;;;;;1.43;0.93;;;;;;;3.77;89.74;99327.22;5073998;28;20265;-75
2021/03/12 06:21:42;;;;;;;3.60;0.93;;;;;;;3.75;90.87;99328.56;5073802;28;20529;-75
2021/03/12 06:24:29;;;;;;;1.00;0.10;;;;;;;3.76;89.65;99328.31;5073061;28;20230;-76
2021/03/12 06:26:55;;;;;;;10.27;0.33;;;;;;;3.79;89.26;99340.41;5073533;28;20725;-75
2021/03/12 06:29:58;;;;;;;0.10;0.10;;;;;;;3.74;89.56;99335.06;5073866;28;20293;-74
2021/03/12 06:32:48;;;;;;;2.43;0.40;;;;;;;3.68;89.82;99341.66;5051767;28;20186;-75
2021/03/12 06:35:18;;;;;;;0.53;0.27;;;;;;;3.64;90.68;99332.56;5073644;28;20444;-75
2021/03/12 06:37:45;;;;;;;0.20;0.20;;;;;;;3.61;91.29;99330.41;5073014;28;20273;-75
2021/03/12 06:40:23;;;;;;;1.20;1.20;;;;;;;3.60;91.55;99340.41;5073552;28;20470;-75
2021/03/12 06:43:06;;;;;;;0.20;0.20;;;;;;;3.61;91.76;99349.31;5073586;28;20261;-75
2021/03/12 06:45:53;;;;;;;0.20;0.20;;;;;;;3.68;91.81;99352.47;5073348;28;21017;-74
2021/03/12 06:48:33;;;;;;;0.57;0.40;;;;;;;3.76;92.15;99343.69;5072777;28;20195;-75
2021/03/12 06:51:00;;;;;;;0.60;0.60;;;;;;;3.83;91.69;99358.44;5073487;28;20166;-75
2021/03/12 06:53:27;;;;;;;0.53;0.53;;;;;;;3.89;91.40;99353.75;5073553;28;20174;-74
2021/03/12 06:55:55;;;;;;;0.53;0.53;;;;;;;3.94;91.20;99363.69;5073255;28;20179;-74
2021/03/12 06:58:20;;;;;;;0.40;0.40;;;;;;;3.99;91.33;99377.91;5073083;28;20618;-74
2021/03/12 07:00:47;;;;;;;1.43;1.13;;;;;;;4.07;90.04;99377.28;5055447;28;20182;-73
2021/03/12 07:03:25;;;;;;;3.17;2.57;;;;;;;4.14;89.02;99366.88;5073336;28;20644;-74
2021/03/12 07:05:57;;;;;;;2.63;1.70;;;;;;;4.25;87.80;99380.22;5073020;28;20648;-74
2021/03/12 07:08:28;;;;;;;0.37;0.30;;;;;;;4.34;87.22;99390.09;5054790;28;20650;-74
2021/03/12 07:10:54;;;;;;;0.10;0.10;;;;;;;4.38;87.66;99384.88;5073143;28;20239;-74
2021/03/12 07:13:45;;;;;;;0.57;0.57;;;;;;;4.43;86.08;99390.19;5073422;28;20174;-74
2021/03/12 07:16:10;;;;;;;0.50;0.50;;;;;;;4.42;86.01;99389.38;5081588;28;20193;-74
2021/03/12 07:18:36;;;;;;;0.30;0.20;;;;;;;4.43;86.63;99392.88;5078316;28;20171;-75
2021/03/12 07:21:03;;;;;;;0.87;0.87;;;;;;;4.45;86.44;99401.50;5073391;28;20247;-75
2021/03/12 07:23:29;;;;;;;0.53;0.53;;;;;;;4.48;86.56;99409.03;5072922;28;20245;-73
2021/03/12 07:25:55;;;;;;;0.57;0.57;;;;;;;4.55;86.80;99414.06;5072911;28;20186;-76
2021/03/12 07:28:23;;;;;;;7.43;1.17;;;;;;;4.60;86.76;99395.03;5054653;28;20194;-76
2021/03/12 07:30:51;;;;;;;0.47;0.47;;;;;;;4.62;86.11;99409.84;5061550;28;20228;-75
2021/03/12 07:33:21;;;;;;;0.30;0.30;;;;;;;4.63;85.74;99418.78;5053164;28;20559;-75
2021/03/12 07:35:47;;;;;;;6.07;1.40;;;;;;;4.61;85.12;99405.56;5052368;28;20175;-76
2021/03/12 07:38:15;;;;;;;0.40;0.37;;;;;;;4.59;85.64;99402.34;5052396;28;20176;-75
2021/03/12 07:40:40;;;;;;;3.77;1.70;;;;;;;4.65;84.63;99417.41;5052582;28;20195;-76
2021/03/12 07:43:08;;;;;;;1.93;1.80;;;;;;;4.65;84.74;99412.00;5052794;28;20466;-75
2021/03/12 07:45:35;;;;;;;1.23;1.23;;;;;;;4.68;83.97;99416.81;5052262;28;20301;-75
2021/03/12 07:48:01;;;;;;;0.20;0.20;;;;;;;4.77;84.42;99408.78;5051945;28;20175;-75
2021/03/12 07:50:29;;;;;;;0.70;0.70;;;;;;;4.82;83.59;99405.19;5052370;28;20228;-75
2021/03/12 07:52:55;;;;;;;3.03;1.40;;;;;;;4.86;83.12;99414.31;5052608;28;20726;-75
2021/03/12 07:55:44;;;;;;;1.60;0.50;;;;;;;4.93;82.34;99417.44;5052399;28;20258;-76
2021/03/12 07:58:12;;;;;;;0.50;0.50;;;;;;;4.96;82.22;99425.75;5051920;28;20193;-75
2021/03/12 08:00:56;;;;;;;2.57;1.47;;;;;;;5.04;81.16;99432.38;5052613;28;20172;-75
2021/03/12 08:03:35;;;;;;;1.30;1.30;;;;;;;5.14;80.20;99428.69;5051971;28;20226;-76
2021/03/12 08:06:01;;;;;;;0.37;0.37;;;;;;;5.21;81.26;99440.72;5052007;28;20627;-75
2021/03/12 08:08:34;;;;;;;1.33;1.13;;;;;;;5.31;80.03;99437.00;5051734;28;20198;-75
2021/03/12 08:11:19;;;;;;;0.90;0.90;;;;;;;5.40;78.78;99442.53;5052143;28;20869;-76
2021/03/12 08:13:45;;;;;;;0.93;0.40;;;;;;;5.44;77.58;99449.75;5051804;28;20259;-75
2021/03/12 08:16:11;;;;;;;1.10;0.40;;;;;;;5.49;77.79;99452.34;5051427;28;20270;-76
2021/03/12 08:18:36;;;;;;;3.30;1.73;;;;;;;5.48;77.08;99452.63;5051724;28;20180;-75
2021/03/12 08:21:32;;;;;;;1.20;1.13;;;;;;;5.49;76.77;99452.34;5051751;28;20175;-76
2021/03/12 08:23:58;;;;;;;0.90;0.73;;;;;;;5.49;75.59;99459.66;5050566;28;20199;-75
2021/03/12 08:26:50;;;;;;;1.20;1.13;;;;;;;5.51;75.07;99461.00;5051252;28;20179;-75
2021/03/12 08:29:31;;;;;;;0.20;0.20;;;;;;;5.54;76.20;99459.56;5051539;28;20179;-75
2021/03/12 08:31:57;;;;;;;3.63;1.47;;;;;;;5.62;73.91;99466.97;5033494;28;20266;-75
2021/03/12 08:34:36;;;;;;;0.40;0.40;;;;;;;5.63;74.03;99463.97;5051383;28;20202;-75
2021/03/12 08:37:26;;;;;;;2.03;1.33;;;;;;;5.68;73.46;99463.88;5051175;28;20581;-75
2021/03/12 08:40:13;;;;;;;0.83;0.83;;;;;;;5.71;74.16;99475.22;5033554;28;20175;-75
2021/03/12 08:43:08;;;;;;;0.70;0.70;;;;;;;5.77;74.18;99479.41;5051844;28;20205;-75
2021/03/12 08:45:48;;;;;;;0.83;0.80;;;;;;;5.78;73.05;99478.31;5051318;28;20709;-75
2021/03/12 08:48:15;;;;;;;0.73;0.67;;;;;;;5.82;72.58;99477.41;5051037;28;20167;-75
2021/03/12 08:50:53;;;;;;;4.60;1.40;;;;;;;5.82;72.77;99466.56;5051398;28;20171;-75
2021/03/12 08:53:20;;;;;;;8.73;1.40;;;;;;;5.84;72.14;99483.34;5033423;28;20236;-79
2021/03/12 08:55:48;;;;;;;1.53;0.87;;;;;;;6.01;72.22;99466.44;5051238;28;20181;-78
2021/03/12 08:58:26;;;;;;;0.73;0.73;;;;;;;6.10;72.59;99475.47;5050861;28;20175;-74
2021/03/12 09:00:54;;;;;;;6.47;1.43;;;;;;;6.16;70.36;99471.53;5051100;28;20201;-68
2021/03/12 09:03:19;;;;;;;1.73;1.63;;;;;;;6.26;71.70;99473.22;5050859;28;20183;-72
2021/03/12 09:05:47;;;;;;;1.97;1.57;;;;;;;6.21;70.75;99490.41;5050744;28;20209;-73
2021/03/12 09:08:13;;;;;;;1.77;1.67;;;;;;;6.10;68.80;99483.63;5050424;28;20183;-72
2021/03/12 09:10:40;;;;;;;1.17;0.90;;;;;;;6.25;70.32;99485.19;5050735;28;20293;-73
2021/03/12 09:13:21;;;;;;;1.93;1.83;;;;;;;6.43;69.77;99492.34;5063729;28;20185;-73
2021/03/12 09:15:49;;;;;;;0.70;0.70;;;;;;;6.48;69.58;99481.38;5070609;28;20174;-72
2021/03/12 09:18:19;;;;;;;5.30;3.23;;;;;;;6.56;71.19;99475.22;5070503;28;20174;-72
2021/03/12 09:20:52;;;;;;;4.10;1.20;;;;;;;6.49;69.63;99482.16;5070682;28;20204;-72
2021/03/12 09:23:18;;;;;;;0.33;0.33;;;;;;;6.32;68.88;99471.19;5070539;28;20177;-72
2021/03/12 09:25:43;;;;;;;1.17;1.13;;;;;;;6.34;69.74;99483.31;5070462;28;20232;-72
2021/03/12 09:28:14;;;;;;;1.33;1.33;;;;;;;6.48;70.29;99472.41;5070071;28;20614;-72
2021/03/12 09:30:44;;;;;;;1.17;0.80;;;;;;;6.62;70.76;99473.16;5070273;28;20173;-72
2021/03/12 09:33:28;;;;;;;0.60;0.60;;;;;;;6.59;70.18;99473.78;5070415;28;20181;-72
2021/03/12 09:35:53;;;;;;;0.20;0.20;;;;;;;6.67;69.44;99480.41;5070251;28;20185;-72
2021/03/12 09:38:36;;;;;;;0.73;0.73;;;;;;;6.67;68.90;99466.81;5070193;28;20171;-72
2021/03/12 09:41:21;;;;;;;0.97;0.97;;;;;;;6.68;69.96;99471.16;5070309;28;20206;-72
2021/03/12 09:44:10;;;;;;;0.80;0.80;;;;;;;6.74;69.07;99469.91;5069797;28;20253;-73
2021/03/12 09:46:36;;;;;;;0.87;0.60;;;;;;;6.71;69.18;99465.91;5069838;28;20166;-72
2021/03/12 09:49:11;;;;;;;1.13;1.00;;;;;;;6.67;67.61;99477.69;5070488;28;20245;-72
2021/03/12 09:51:39;;;;;;;6.40;0.53;;;;;;;6.82;67.45;99461.81;5052308;28;20583;-72
2021/03/12 09:54:07;;;;;;;1.87;1.30;;;;;;;6.93;67.68;99477.81;5070482;28;20244;-72
2021/03/12 09:56:33;;;;;;;1.70;1.60;;;;;;;6.98;68.60;99464.13;5070243;28;20214;-72
2021/03/12 09:58:59;;;;;;;0.97;0.97;;;;;;;6.85;66.46;99455.75;5070397;28;20249;-72
2021/03/12 10:01:25;;;;;;;0.27;0.27;;;;;;;6.83;66.04;99459.91;5070747;28;20305;-72
2021/03/12 10:03:50;;;;;;;6.30;2.17;;;;;;;6.98;65.65;99462.22;5070041;28;20547;-71
2021/03/12 10:06:16;;;;;;;0.90;0.47;;;;;;;7.00;65.25;99456.47;5070033;28;20529;-72
2021/03/12 10:09:09;;;;;;;1.10;1.10;;;;;;;7.14;66.52;99455.28;5070312;28;20162;-73
2021/03/12 10:11:41;;;;;;;0.20;0.20;;;;;;;7.37;67.09;99460.63;5052305;28;20190;-73
2021/03/12 10:14:33;;;;;;;2.43;1.30;;;;;;;7.26;65.70;99457.41;5070645;28;20278;-72
2021/03/12 10:17:11;;;;;;;0.50;0.50;;;;;;;7.35;66.05;99455.50;5069855;28;20162;-73
2021/03/12 10:19:54;;;;;;;0.00;0.00;;;;;;;7.25;66.54;99468.59;5070249;28;20178;-73
2021/03/12 10:22:43;;;;;;;0.67;0.67;;;;;;;7.19;65.27;99467.91;5070152;28;20221;-73
2021/03/12 10:25:17;;;;;;;1.50;1.23;;;;;;;7.25;64.46;99453.09;5069413;28;20301;-73
2021/03/12 10:27:44;;;;;;;7.30;0.20;;;;;;;7.42;63.25;99453.16;5069774;28;20170;-73
2021/03/12 10:30:28;;;;;;;3.40;0.80;;;;;;;7.58;63.25;99460.88;5069908;28;20187;-73
2021/03/12 10:32:56;;;;;;;8.27;0.67;;;;;;;7.53;63.10;99437.34;5053872;28;20250;-73
2021/03/12 10:35:31;;;;;;;0.20;0.20;;;;;;;7.63;64.85;99453.34;5049899;28;20190;-73
2021/03/12 10:38:12;;;;;;;2.57;0.70;;;;;;;7.69;62.57;99454.03;5031735;28;20191;-73
2021/03/12 10:40:40;;;;;;;1.30;0.90;;;;;;;7.90;63.26;99456.94;5032386;28;20171;-73
2021/03/12 10:43:14;;;;;;;1.50;0.60;;;;;;;8.07;60.14;99443.34;5049853;28;20201;-73
2021/03/12 10:45:46;;;;;;;12.73;2.67;;;;;;;8.22;60.30;99436.63;5031902;28;20210;-73
2021/03/12 10:48:11;;;;;;;0.30;0.30;;;;;;;7.98;59.36;99440.63;5031480;28;20524;-73
2021/03/12 10:50:39;;;;;;;0.63;0.20;;;;;;;8.10;61.24;99445.44;5049829;28;20229;-73
2021/03/12 10:53:23;;;;;;;0.17;0.17;;;;;;;7.93;61.04;99446.22;5050214;28;20178;-73
2021/03/12 10:55:51;;;;;;;7.73;2.00;;;;;;;7.91;59.45;99432.13;5051166;28;20179;-72
2021/03/12 10:58:25;;;;;;;0.20;0.20;;;;;;;8.04;59.30;99442.06;5053737;28;20622;-73
2021/03/12 11:01:09;;;;;;;7.80;1.50;;;;;;;8.01;58.79;99439.19;5053475;28;20611;-73
2021/03/12 11:03:35;;;;;;;5.37;0.53;;;;;;;8.00;58.58;99445.75;5053271;28;20629;-72
2021/03/12 11:06:01;;;;;;;0.33;0.33;;;;;;;7.96;59.08;99448.31;5053238;28;20188;-73
2021/03/12 11:08:27;;;;;;;0.23;0.23;;;;;;;7.88;58.05;99430.06;5052838;28;20183;-73
2021/03/12 11:10:54;;;;;;;0.00;0.00;;;;;;;7.82;59.19;99431.34;5053189;28;20968;-73
2021/03/12 11:13:19;;;;;;;0.40;0.40;;;;;;;7.85;59.25;99446.22;5053394;28;20172;-73
2021/03/12 11:15:45;;;;;;;0.50;0.50;;;;;;;7.83;57.49;99424.78;5053118;28;20175;-72
2021/03/12 11:18:10;;;;;;;0.67;0.23;;;;;;;8.01;58.67;99452.78;5052997;28;20171;-73
2021/03/12 11:20:35;;;;;;;0.40;0.10;;;;;;;8.06;57.77;99441.75;5053201;28;20182;-73
2021/03/12 11:23:01;;;;;;;0.27;0.23;;;;;;;8.19;57.96;99429.91;5052392;28;20577;-73
2021/03/12 11:25:26;;;;;;;0.17;0.13;;;;;;;8.11;57.65;99428.00;5052887;28;20214;-73
2021/03/12 11:27:52;;;;;;;0.37;0.30;;;;;;;8.21;56.78;99432.31;5052493;28;20179;-73
2021/03/12 11:30:20;;;;;;;0.73;0.70;;;;;;;8.15;56.92;99431.69;5052808;28;20661;-73
2021/03/12 11:32:46;;;;;;;1.10;0.63;;;;;;;8.35;55.89;99422.88;5067627;28;20171;-73
2021/03/12 11:35:13;;;;;;;0.37;0.37;;;;;;;8.40;57.45;99429.31;5072932;28;20204;-73
2021/03/12 11:37:39;;;;;;;0.40;0.40;;;;;;;8.58;56.50;99422.72;5072135;28;20167;-73
2021/03/12 11:40:07;;;;;;;0.67;0.67;;;;;;;8.64;55.40;99413.25;5072804;28;20592;-73
2021/03/12 11:42:32;;;;;;;0.57;0.57;;;;;;;8.62;55.58;99429.09;5054807;28;20174;-72
2021/03/12 11:44:59;;;;;;;1.70;0.50;;;;;;;8.48;55.08;99412.16;5072689;28;20202;-71
2021/03/12 11:47:25;;;;;;;6.27;0.87;;;;;;;8.59;55.35;99416.94;5072469;28;20221;-72
2021/03/12 11:49:50;;;;;;;3.10;0.20;;;;;;;8.61;55.16;99417.41;5072605;28;20163;-72
2021/03/12 11:52:17;;;;;;;1.33;1.23;;;;;;;8.81;53.87;99410.47;5072162;28;20676;-71